Time;durP1;ratioP1;P1;durP2;ratioP2;P2;SDS_P1;SDS_P2;PMS_P1;PMS_P2;Temp;Humidity;BMP_temperature;BMP_pressure;BME280_temperature;BME280_humidity;BME280_pressure;Samples;Min_cycle;Max_cycle;Signal;HPM_P1;HPM_P2
2021/08/14 00:03:37;;;;;;;19.78;9.03;;;;;;;20.77;62.94;99477.50;263280;1093;114754;-62
2021/08/14 00:08:40;;;;;;;14.60;9.70;;;;;;;20.75;63.06;99474.95;263164;1093;115964;-66
2021/08/14 00:13:44;;;;;;;19.68;9.95;;;;;;;20.72;63.02;99479.78;263137;1092;114858;-63
2021/08/14 00:18:47;;;;;;;15.47;9.70;;;;;;;20.69;63.00;99472.00;263232;1092;116634;-66
2021/08/14 00:23:51;;;;;;;16.90;10.20;;;;;;;20.64;63.24;99474.28;263158;1093;115428;-67
2021/08/14 00:28:54;;;;;;;16.30;9.47;;;;;;;20.60;63.33;99478.29;262832;1093;115469;-70
2021/08/14 00:33:58;;;;;;;18.50;9.80;;;;;;;20.55;63.22;99463.37;262407;1093;115717;-64
2021/08/14 00:39:03;;;;;;;16.48;9.58;;;;;;;20.52;63.46;99460.95;263254;1092;114998;-61
2021/08/14 00:44:07;;;;;;;17.68;9.60;;;;;;;20.49;63.36;99469.33;263254;1092;115399;-63
2021/08/14 00:49:11;;;;;;;19.67;10.77;;;;;;;20.43;63.66;99464.51;262518;1092;115303;-60
2021/08/14 00:54:14;;;;;;;15.55;9.75;;;;;;;20.36;63.58;99455.28;263106;1093;115425;-65
2021/08/14 00:59:18;;;;;;;12.70;9.15;;;;;;;20.31;63.66;99460.27;263180;1093;114983;-66
2021/08/14 01:04:22;;;;;;;12.93;9.10;;;;;;;20.26;63.65;99457.16;262623;1092;114875;-63
2021/08/14 01:09:30;;;;;;;14.63;9.85;;;;;;;20.25;63.88;99441.95;262958;1093;115141;-63
2021/08/14 01:14:34;;;;;;;16.55;9.58;;;;;;;20.21;63.96;99430.59;263223;1092;115362;-61
2021/08/14 01:19:37;;;;;;;12.00;9.90;;;;;;;20.17;64.10;99431.01;262988;1092;115379;-63
2021/08/14 01:24:43;;;;;;;17.38;10.58;;;;;;;20.11;63.93;99435.17;263055;1092;115563;-60
2021/08/14 01:29:46;;;;;;;15.57;9.63;;;;;;;20.08;64.29;99427.35;262806;1092;115211;-63
2021/08/14 01:34:50;;;;;;;16.60;9.15;;;;;;;20.06;64.41;99435.59;263162;1093;115127;-64
2021/08/14 01:39:54;;;;;;;14.75;9.43;;;;;;;20.07;64.43;99440.02;263302;1092;114838;-60
2021/08/14 01:44:58;;;;;;;16.60;9.65;;;;;;;20.07;64.54;99437.31;263183;1093;115470;-69
2021/08/14 01:50:01;;;;;;;16.55;11.00;;;;;;;20.04;64.44;99439.42;263179;1092;115371;-61
2021/08/14 01:55:06;;;;;;;18.13;10.75;;;;;;;19.97;64.53;99439.19;263189;1093;115333;-62
2021/08/14 02:00:10;;;;;;;12.18;9.65;;;;;;;19.93;64.82;99435.05;263177;1092;115465;-59
2021/08/14 02:05:16;;;;;;;16.77;9.50;;;;;;;19.93;64.56;99426.94;263198;1093;115404;-60
2021/08/14 02:10:20;;;;;;;14.78;10.38;;;;;;;19.93;64.67;99423.39;262577;1092;115383;-62
2021/08/14 02:15:26;;;;;;;15.63;10.00;;;;;;;19.91;64.89;99414.60;263148;1092;115656;-60
2021/08/14 02:20:29;;;;;;;15.77;11.00;;;;;;;19.89;64.81;99412.02;263018;1092;115898;-61
2021/08/14 02:25:33;;;;;;;18.23;11.17;;;;;;;19.85;64.82;99402.52;263160;1092;216196;-60
2021/08/14 02:30:37;;;;;;;13.83;10.37;;;;;;;19.83;65.21;99394.54;263242;1093;117384;-61
2021/08/14 02:35:40;;;;;;;19.10;10.18;;;;;;;19.83;65.16;99399.94;262874;1092;115297;-64
2021/08/14 02:40:46;;;;;;;18.03;10.78;;;;;;;19.86;65.44;99390.70;262845;1092;116822;-60
2021/08/14 02:45:50;;;;;;;14.27;10.70;;;;;;;19.87;65.47;99396.95;262223;1092;115545;-65
2021/08/14 02:50:54;;;;;;;16.68;11.10;;;;;;;19.88;65.50;99393.28;262678;1092;115792;-66
2021/08/14 02:55:58;;;;;;;17.88;10.98;;;;;;;19.85;65.39;99391.71;263224;1092;115358;-64
2021/08/14 03:01:01;;;;;;;16.30;10.43;;;;;;;19.84;65.61;99398.97;262980;1092;115790;-62
2021/08/14 03:06:22;;;;;;;17.73;11.10;;;;;;;19.93;66.15;99397.22;262996;1092;115551;-63
2021/08/14 03:11:25;;;;;;;18.43;11.87;;;;;;;20.02;66.16;99396.35;263148;1092;115319;-65
2021/08/14 03:16:29;;;;;;;18.80;11.68;;;;;;;20.06;65.95;99389.66;262538;1092;116266;-61
2021/08/14 03:21:33;;;;;;;14.70;10.55;;;;;;;20.05;65.97;99387.96;262894;1092;115727;-59
2021/08/14 03:26:37;;;;;;;16.08;10.58;;;;;;;20.05;65.98;99382.55;262876;1092;115554;-60
2021/08/14 03:31:40;;;;;;;20.43;10.90;;;;;;;20.08;66.17;99382.27;263006;1092;115777;-65
2021/08/14 03:36:44;;;;;;;18.33;10.23;;;;;;;20.11;65.83;99396.45;263183;1093;116003;-64
2021/08/14 03:41:48;;;;;;;28.17;21.70;;;;;;;20.34;66.50;99397.80;263153;1093;115442;-61
2021/08/14 03:46:51;;;;;;;71.33;54.03;;;;;;;20.61;66.29;99415.92;263057;1092;115338;-61
2021/08/14 03:51:55;;;;;;;21.13;16.33;;;;;;;20.85;66.33;99415.36;263264;1092;115814;-62
2021/08/14 03:56:58;;;;;;;50.33;36.90;;;;;;;21.07;65.99;99410.55;262847;1093;115653;-64
2021/08/14 04:02:02;;;;;;;34.50;25.13;;;;;;;21.28;65.74;99407.53;262375;1092;114967;-66
2021/08/14 04:07:06;;;;;;;17.88;13.00;;;;;;;21.33;65.36;99414.20;263028;1093;115044;-61
2021/08/14 04:12:09;;;;;;;150.13;114.47;;;;;;;21.36;65.05;99410.34;262608;1092;115705;-63
2021/08/14 04:17:13;;;;;;;19.95;15.30;;;;;;;21.37;65.11;99402.08;262927;1092;115829;-63
2021/08/14 04:22:17;;;;;;;21.43;16.15;;;;;;;21.44;65.17;99397.74;263323;1093;115475;-67
2021/08/14 04:27:21;;;;;;;26.43;17.95;;;;;;;21.58;65.17;99387.36;263194;1093;115188;-62
2021/08/14 04:32:24;;;;;;;83.13;66.75;;;;;;;21.62;64.58;99389.59;263170;1092;115582;-64
2021/08/14 04:37:28;;;;;;;17.15;10.60;;;;;;;21.44;63.96;99386.06;262784;1093;115944;-60
2021/08/14 04:42:32;;;;;;;17.68;10.78;;;;;;;21.21;64.20;99401.89;263128;1092;115466;-61
2021/08/14 04:47:35;;;;;;;16.88;10.30;;;;;;;21.07;64.54;99414.10;261642;1093;115278;-64
2021/08/14 04:52:39;;;;;;;13.50;9.80;;;;;;;21.09;64.68;99411.23;263195;1092;115520;-60
2021/08/14 04:57:43;;;;;;;19.50;10.83;;;;;;;21.09;64.78;99401.25;263360;1092;115218;-61
2021/08/14 05:02:46;;;;;;;14.97;10.43;;;;;;;21.14;64.72;99406.22;263157;1093;115379;-61
2021/08/14 05:07:51;;;;;;;18.23;9.77;;;;;;;21.20;64.65;99409.16;262354;1093;115570;-62
2021/08/14 05:12:54;;;;;;;14.73;10.00;;;;;;;21.26;64.85;99411.27;263219;1093;115274;-61
2021/08/14 05:17:58;;;;;;;14.45;9.25;;;;;;;21.34;64.93;99405.09;262756;1092;115125;-60
2021/08/14 05:23:01;;;;;;;14.57;8.40;;;;;;;21.45;64.56;99410.27;263128;1092;114967;-59
2021/08/14 05:28:05;;;;;;;11.73;7.73;;;;;;;21.58;64.77;99400.91;263162;1093;115696;-61
2021/08/14 05:33:09;;;;;;;11.93;8.20;;;;;;;21.72;64.83;99401.18;262948;1093;115267;-60
2021/08/14 05:38:13;;;;;;;14.85;7.75;;;;;;;21.81;64.60;99407.52;263121;1091;115360;-60
2021/08/14 05:43:16;;;;;;;10.30;7.40;;;;;;;21.87;64.58;99420.42;262952;1092;116744;-60
2021/08/14 05:48:20;;;;;;;12.07;7.70;;;;;;;21.94;64.33;99420.64;262185;1092;115116;-61
2021/08/14 05:53:24;;;;;;;10.05;6.95;;;;;;;22.01;64.22;99420.85;262376;1092;115214;-59
2021/08/14 05:58:27;;;;;;;12.95;7.65;;;;;;;22.12;64.39;99418.75;263177;1093;115323;-57
2021/08/14 06:03:34;;;;;;;13.60;7.68;;;;;;;22.22;64.30;99429.52;263281;1092;115680;-65
2021/08/14 06:08:39;;;;;;;13.37;8.33;;;;;;;22.35;64.19;99431.77;262826;1092;115228;-61
2021/08/14 06:13:43;;;;;;;8.80;7.60;;;;;;;22.40;63.79;99435.72;262861;1093;115472;-61
2021/08/14 06:18:47;;;;;;;11.30;7.80;;;;;;;22.42;63.47;99438.28;262603;1092;115245;-64
2021/08/14 06:23:50;;;;;;;14.75;9.28;;;;;;;22.41;63.53;99429.27;263172;1093;114975;-63
2021/08/14 06:28:54;;;;;;;14.90;8.28;;;;;;;22.41;63.63;99436.56;262903;1092;116827;-60
2021/08/14 06:33:57;;;;;;;14.80;9.13;;;;;;;22.43;63.73;99437.27;262982;1093;115099;-62
2021/08/14 06:39:02;;;;;;;14.70;8.90;;;;;;;22.43;63.76;99443.53;262254;1092;116067;-62
2021/08/14 06:44:06;;;;;;;11.10;9.07;;;;;;;22.42;63.55;99435.57;263290;1093;115283;-61
2021/08/14 06:49:09;;;;;;;13.70;9.55;;;;;;;22.42;63.77;99441.00;263052;1093;115334;-60
2021/08/14 06:54:14;;;;;;;14.57;9.70;;;;;;;22.40;63.72;99446.56;262658;1093;115180;-61
2021/08/14 06:59:18;;;;;;;11.48;7.00;;;;;;;22.48;63.78;99447.61;262931;1092;115044;-62
2021/08/14 07:04:21;;;;;;;9.93;7.00;;;;;;;22.57;64.08;99441.23;263475;1092;115275;-60
2021/08/14 07:09:25;;;;;;;10.20;7.40;;;;;;;22.70;64.07;99438.92;262784;1092;115424;-63
2021/08/14 07:14:29;;;;;;;10.70;7.57;;;;;;;22.82;64.15;99437.59;263119;1093;115869;-62
2021/08/14 07:19:33;;;;;;;10.15;7.53;;;;;;;22.95;64.18;99445.31;263174;1092;115874;-64
2021/08/14 07:24:36;;;;;;;11.35;7.25;;;;;;;23.07;64.10;99435.02;263094;1093;115164;-64
2021/08/14 07:29:40;;;;;;;10.25;6.75;;;;;;;23.20;63.82;99437.23;262935;1093;115758;-62
2021/08/14 07:34:43;;;;;;;9.65;6.05;;;;;;;23.34;64.08;99440.16;263179;1092;115334;-63
2021/08/14 07:39:47;;;;;;;12.25;6.03;;;;;;;23.48;63.61;99441.38;263022;1092;114559;-63
2021/08/14 07:44:51;;;;;;;9.85;6.05;;;;;;;23.60;63.60;99440.00;263177;1092;115430;-67
2021/08/14 07:49:54;;;;;;;9.30;7.00;;;;;;;23.72;63.38;99443.28;263215;1092;115304;-62
2021/08/14 07:54:58;;;;;;;9.60;6.60;;;;;;;23.78;63.16;99423.58;263169;1093;115075;-62
2021/08/14 08:00:02;;;;;;;11.83;7.05;;;;;;;23.87;63.12;99416.25;263086;1092;115136;-63
2021/08/14 08:05:14;;;;;;;11.57;6.37;;;;;;;23.98;63.77;99415.92;263240;1093;115739;-62
2021/08/14 08:10:20;;;;;;;;;;;;;;;24.15;63.33;99418.59;263463;1092;114969;-60
2021/08/14 08:15:25;;;;;;;11.20;7.03;;;;;;;24.33;62.67;99415.69;262699;1092;102894;-62
2021/08/14 08:20:28;;;;;;;10.00;6.50;;;;;;;24.50;62.77;99409.20;262931;1092;115128;-62
2021/08/14 08:25:32;;;;;;;11.25;6.03;;;;;;;24.62;62.46;99399.60;263203;1092;115431;-62
2021/08/14 08:30:36;;;;;;;9.78;6.30;;;;;;;24.74;62.09;99408.25;263165;1093;115097;-65
2021/08/14 08:35:40;;;;;;;10.60;6.80;;;;;;;24.82;61.62;99410.08;263128;1093;114584;-64
2021/08/14 08:40:44;;;;;;;174.37;127.70;;;;;;;24.87;61.42;99405.80;263191;1093;115008;-65
2021/08/14 08:45:48;;;;;;;14.50;11.80;;;;;;;24.96;60.94;99396.54;263230;1092;115887;-65
2021/08/14 08:50:54;;;;;;;13.40;7.37;;;;;;;25.04;60.86;99397.55;263167;1093;115990;-65
2021/08/14 08:55:59;;;;;;;15.30;11.63;;;;;;;25.07;60.07;99406.20;263163;1091;115020;-65
2021/08/14 09:01:03;;;;;;;14.73;6.67;;;;;;;25.13;59.99;99399.20;262852;1092;115694;-65
2021/08/14 09:06:07;;;;;;;11.57;7.77;;;;;;;25.21;59.93;99401.89;262928;1093;115293;-65
2021/08/14 09:11:13;;;;;;;12.43;7.18;;;;;;;25.31;59.75;99398.94;263231;1092;115014;-65
2021/08/14 09:16:19;;;;;;;7.83;6.20;;;;;;;25.40;59.45;99390.49;261700;1093;115184;-65
2021/08/14 09:21:37;;;;;;;11.07;6.80;;;;;;;25.47;59.64;99396.06;262785;1092;115493;-65
2021/08/14 09:26:46;;;;;;;9.33;6.57;;;;;;;25.54;59.46;99388.85;263180;1092;115223;-66
2021/08/14 09:31:52;;;;;;;8.70;6.13;;;;;;;25.64;59.41;99392.17;263150;1093;115030;-64
2021/08/14 09:37:09;;;;;;;11.40;6.87;;;;;;;25.77;59.73;99380.65;262830;1092;114808;-65
2021/08/14 09:42:14;;;;;;;12.30;8.43;;;;;;;25.92;59.48;99372.55;263123;1093;115356;-65
2021/08/14 09:47:35;;;;;;;9.95;7.38;;;;;;;26.06;59.26;99373.59;262329;1093;115520;-66
2021/08/14 09:52:41;;;;;;;8.40;6.83;;;;;;;26.15;58.87;99367.88;263199;1093;115376;-66
2021/08/14 09:57:58;;;;;;;9.83;6.97;;;;;;;26.24;58.75;99362.31;263256;1093;115818;-67
2021/08/14 10:03:03;;;;;;;10.80;7.57;;;;;;;26.32;58.53;99364.93;261559;1092;114859;-66
2021/08/14 10:08:07;;;;;;;9.43;7.07;;;;;;;26.40;58.33;99359.39;262882;1092;115656;-66
2021/08/14 10:13:12;;;;;;;13.83;8.68;;;;;;;26.49;58.00;99355.54;263133;1092;115286;-65
2021/08/14 10:18:17;;;;;;;11.80;8.23;;;;;;;26.63;58.16;99348.36;263119;1093;115730;-66
2021/08/14 10:23:23;;;;;;;10.57;8.50;;;;;;;26.77;57.43;99352.13;262904;1093;115321;-66
2021/08/14 10:28:42;;;;;;;9.70;7.33;;;;;;;26.93;57.95;99337.38;262881;1092;114914;-67
2021/08/14 10:33:46;;;;;;;11.57;7.20;;;;;;;27.10;57.41;99339.66;262744;1092;115127;-66
2021/08/14 10:38:50;;;;;;;12.88;7.45;;;;;;;27.28;57.42;99338.41;262540;1092;115298;-66
2021/08/14 10:43:54;;;;;;;10.10;6.67;;;;;;;27.42;56.87;99328.45;263103;1092;115054;-67
2021/08/14 10:48:59;;;;;;;12.90;7.95;;;;;;;27.56;56.92;99336.56;263145;1093;116167;-65
2021/08/14 10:54:02;;;;;;;15.20;7.63;;;;;;;27.69;56.36;99322.16;262878;1092;115262;-66
2021/08/14 10:59:06;;;;;;;9.53;7.47;;;;;;;27.82;56.05;99318.71;263120;1092;116069;-66
2021/08/14 11:04:39;;;;;;;11.10;7.63;;;;;;;27.96;55.50;99316.91;263106;1092;115111;-65
2021/08/14 11:09:43;;;;;;;11.07;7.67;;;;;;;28.10;54.98;99309.63;263093;1093;115443;-65
2021/08/14 11:14:47;;;;;;;11.75;7.00;;;;;;;28.23;55.17;99296.02;262941;1093;116261;-66
2021/08/14 11:19:53;;;;;;;10.80;7.80;;;;;;;28.37;54.66;99299.66;263181;1092;115488;-66
2021/08/14 11:25:00;;;;;;;49.00;41.45;;;;;;;28.45;54.31;99303.08;262553;1092;115118;-65
2021/08/14 11:30:12;;;;;;;16.87;11.63;;;;;;;28.58;54.32;99290.50;263235;1093;115303;-66
2021/08/14 11:35:18;;;;;;;10.90;8.63;;;;;;;28.74;54.19;99290.97;263051;1092;115282;-66
2021/08/14 11:40:33;;;;;;;13.37;7.83;;;;;;;28.86;53.89;99276.66;263321;1092;115635;-66
2021/08/14 11:45:39;;;;;;;12.20;8.27;;;;;;;29.00;53.72;99287.45;262879;1093;115393;-65
2021/08/14 11:50:45;;;;;;;9.20;7.80;;;;;;;29.13;53.40;99270.19;263105;1093;115477;-66
2021/08/14 11:56:05;;;;;;;11.00;7.73;;;;;;;29.29;53.16;99265.37;262624;1093;115335;-66
2021/08/14 12:01:11;;;;;;;12.10;7.53;;;;;;;29.47;52.92;99273.78;262794;1093;115471;-64
2021/08/14 12:06:16;;;;;;;11.23;7.67;;;;;;;29.59;52.43;99257.55;263188;1093;115377;-66
2021/08/14 12:11:23;;;;;;;11.37;7.77;;;;;;;29.69;51.88;99261.57;263009;1092;115960;-64
2021/08/14 12:16:26;;;;;;;8.77;7.77;;;;;;;29.81;51.74;99255.42;263271;1092;115196;-66
2021/08/14 12:21:30;;;;;;;9.18;7.50;;;;;;;29.93;51.54;99251.80;262647;1092;115477;-66
2021/08/14 12:26:34;;;;;;;10.55;7.35;;;;;;;30.09;51.34;99244.98;262338;1093;115749;-66
2021/08/14 12:31:47;;;;;;;12.20;7.90;;;;;;;30.20;51.18;99251.76;262838;1092;115319;-65
2021/08/14 12:37:14;;;;;;;234.98;173.63;;;;;;;30.36;51.14;99250.41;263016;1093;115306;-66
2021/08/14 12:42:20;;;;;;;14.17;11.37;;;;;;;30.53;50.22;99239.75;263077;1093;115840;-66
2021/08/14 12:47:25;;;;;;;13.97;8.30;;;;;;;30.69;50.11;99243.91;263121;1092;115509;-66
2021/08/14 12:52:29;;;;;;;12.93;7.97;;;;;;;30.84;49.80;99231.58;263198;1093;115208;-66
2021/08/14 12:57:32;;;;;;;108.75;94.80;;;;;;;31.01;49.60;99242.02;263032;1092;115400;-65
2021/08/14 13:02:36;;;;;;;17.73;11.25;;;;;;;31.15;49.27;99256.50;263110;1092;116111;-68
2021/08/14 13:07:40;;;;;;;11.97;7.33;;;;;;;31.25;48.48;99240.34;263101;1093;115802;-67
2021/08/14 13:12:47;;;;;;;11.60;7.40;;;;;;;31.34;47.87;99236.28;262745;1092;115449;-67
2021/08/14 13:17:53;;;;;;;8.33;6.90;;;;;;;31.43;47.45;99228.60;263141;1092;115009;-67
2021/08/14 13:22:56;;;;;;;8.53;6.67;;;;;;;31.49;47.24;99220.28;263073;1092;114718;-66
2021/08/14 13:28:00;;;;;;;10.13;6.77;;;;;;;31.67;47.38;99227.72;263245;1092;114668;-67
2021/08/14 13:33:04;;;;;;;;;;;;;;;31.82;46.76;99210.82;262969;1092;115080;-67
2021/08/14 13:38:07;;;;;;;9.97;7.13;;;;;;;31.94;47.16;99216.45;262946;1091;102134;-66
2021/08/14 13:43:10;;;;;;;;;;;;;;;32.07;46.69;99208.04;263179;1092;115368;-66
2021/08/14 13:48:14;;;;;;;10.18;7.28;;;;;;;31.98;46.24;99209.41;263204;1092;102432;-67
2021/08/14 13:53:17;;;;;;;;;;;;;;;31.92;45.93;99199.31;262414;1093;115139;-67
2021/08/14 13:58:21;;;;;;;8.87;7.57;;;;;;;31.93;46.32;99199.10;263328;1092;102661;-67
2021/08/14 14:03:26;;;;;;;10.03;7.40;;;;;;;32.04;46.14;99202.99;262879;1093;115528;-68
2021/08/14 14:08:30;;;;;;;13.50;7.63;;;;;;;32.08;45.62;99190.44;263102;1091;115477;-67
2021/08/14 14:13:33;;;;;;;234.90;190.48;;;;;;;32.14;45.80;99191.44;263070;1092;115209;-67
2021/08/14 14:18:37;;;;;;;22.17;18.70;;;;;;;32.22;45.72;99188.34;262871;1092;115812;-65
2021/08/14 14:23:40;;;;;;;9.87;7.80;;;;;;;32.48;45.61;99192.70;263157;1093;115662;-68
2021/08/14 14:28:44;;;;;;;;;;;;;;;32.77;44.95;99196.48;263309;1092;115000;-67
2021/08/14 14:33:48;;;;;;;9.97;6.30;;;;;;;33.02;44.73;99204.63;262615;1092;102940;-67
2021/08/14 14:38:52;;;;;;;8.87;6.40;;;;;;;33.12;44.14;99199.36;263158;1092;114732;-67
2021/08/14 14:43:55;;;;;;;10.70;7.47;;;;;;;33.00;43.40;99186.63;263212;1092;115369;-66
2021/08/14 14:48:59;;;;;;;;;;;;;;;32.80;43.49;99190.50;263196;1092;115102;-65
2021/08/14 14:54:03;;;;;;;12.40;6.93;;;;;;;32.46;43.79;99192.91;263481;1092;101351;-64
2021/08/14 14:59:07;;;;;;;8.87;6.60;;;;;;;32.03;43.64;99195.78;263003;1092;117157;-65
2021/08/14 15:04:10;;;;;;;11.57;7.10;;;;;;;31.68;43.51;99184.52;263325;1092;115032;-66
2021/08/14 15:09:14;;;;;;;7.57;6.67;;;;;;;31.36;43.90;99184.66;263204;1093;115113;-68
2021/08/14 15:14:18;;;;;;;9.33;6.53;;;;;;;31.12;43.67;99182.73;263137;1092;115110;-69
2021/08/14 15:19:21;;;;;;;;;;;;;;;30.93;44.29;99179.91;263177;1093;115351;-67
2021/08/14 15:24:25;;;;;;;8.47;6.70;;;;;;;30.73;44.54;99169.03;263251;1093;102564;-67
2021/08/14 15:29:29;;;;;;;;;;;;;;;30.60;44.13;99163.63;263190;1093;114779;-65
2021/08/14 15:34:32;;;;;;;11.73;6.97;;;;;;;30.43;44.25;99166.06;263345;1092;101163;-67
2021/08/14 15:39:36;;;;;;;10.23;6.50;;;;;;;30.27;44.51;99156.45;263146;1093;115530;-64
2021/08/14 15:44:40;;;;;;;10.93;6.57;;;;;;;30.14;44.56;99154.59;262660;1093;115435;-65
2021/08/14 15:49:44;;;;;;;11.20;6.83;;;;;;;30.03;44.69;99144.31;263329;1093;114920;-67
2021/08/14 15:54:48;;;;;;;9.00;6.48;;;;;;;29.91;44.89;99149.63;263167;1093;115534;-62
2021/08/14 15:59:51;;;;;;;7.90;6.70;;;;;;;29.80;44.90;99142.08;263139;1093;115158;-65
2021/08/14 16:04:55;;;;;;;10.48;7.73;;;;;;;29.71;45.25;99148.86;263305;1092;114773;-66
2021/08/14 16:09:58;;;;;;;13.75;11.38;;;;;;;29.55;45.43;99141.06;263304;1092;115365;-65
2021/08/14 16:15:05;;;;;;;11.30;8.87;;;;;;;29.39;45.53;99140.48;263156;1092;115969;-65
2021/08/14 16:20:09;;;;;;;11.37;8.10;;;;;;;29.25;46.05;99144.31;263310;1093;115321;-67
2021/08/14 16:25:13;;;;;;;64.20;57.30;;;;;;;29.11;45.96;99140.75;263187;1093;115929;-66
2021/08/14 16:30:16;;;;;;;60.08;53.23;;;;;;;29.00;46.13;99146.85;262194;1092;115490;-65
2021/08/14 16:35:20;;;;;;;14.98;12.08;;;;;;;28.89;46.80;99142.83;263137;1092;115673;-66
2021/08/14 16:40:23;;;;;;;13.33;10.68;;;;;;;28.81;47.06;99150.42;263125;1092;115689;-64
2021/08/14 16:45:27;;;;;;;43.08;38.10;;;;;;;28.71;46.91;99148.94;263142;1092;115695;-66
2021/08/14 16:50:31;;;;;;;19.18;13.35;;;;;;;28.65;47.20;99146.20;262369;1093;115586;-65
2021/08/14 16:55:35;;;;;;;15.38;13.63;;;;;;;28.55;47.69;99138.38;262949;1093;115147;-65
2021/08/14 17:00:39;;;;;;;;;;;;;;;28.45;47.63;99151.64;263036;1092;115229;-66
2021/08/14 17:05:43;;;;;;;14.60;8.53;;;;;;;28.35;47.76;99143.80;263236;1092;101640;-67
2021/08/14 17:10:47;;;;;;;13.43;8.58;;;;;;;28.26;48.35;99150.50;263233;1093;115300;-67
2021/08/14 17:15:50;;;;;;;10.63;8.53;;;;;;;28.15;48.39;99151.95;263146;1093;115551;-67
2021/08/14 17:20:54;;;;;;;11.30;9.20;;;;;;;28.07;48.74;99157.62;263151;1092;115309;-68
2021/08/14 17:25:58;;;;;;;11.67;9.80;;;;;;;28.00;48.37;99154.02;262994;1092;115280;-66
2021/08/14 17:31:03;;;;;;;13.73;9.33;;;;;;;27.93;48.80;99148.52;263270;1092;115091;-66
2021/08/14 17:36:06;;;;;;;12.37;9.57;;;;;;;27.82;48.77;99147.22;262515;1093;115534;-67
2021/08/14 17:41:10;;;;;;;144.53;106.45;;;;;;;27.72;49.28;99145.88;263159;1093;114859;-66
2021/08/14 17:46:14;;;;;;;45.80;36.03;;;;;;;27.63;49.82;99136.15;261989;1092;115837;-67
2021/08/14 17:51:18;;;;;;;25.80;19.53;;;;;;;27.50;50.17;99137.75;263017;1092;115641;-68
2021/08/14 17:56:22;;;;;;;23.40;19.85;;;;;;;27.36;50.32;99134.10;263113;1093;115424;-67
2021/08/14 18:01:27;;;;;;;22.27;14.40;;;;;;;27.23;50.75;99133.17;263182;1092;115297;-64
2021/08/14 18:06:31;;;;;;;18.27;12.03;;;;;;;27.11;50.98;99124.67;263221;1093;115326;-72
2021/08/14 18:11:34;;;;;;;;;;;;;;;26.98;51.41;99133.61;263160;1093;115379;-68
2021/08/14 18:16:39;;;;;;;16.37;13.37;;;;;;;26.86;51.20;99121.52;262731;1092;102686;-67
2021/08/14 18:21:43;;;;;;;12.83;11.43;;;;;;;26.79;51.38;99126.93;263126;1092;115105;-69
2021/08/14 18:26:46;;;;;;;17.53;11.45;;;;;;;26.73;52.16;99137.80;263108;1093;115631;-67
2021/08/14 18:31:50;;;;;;;13.53;11.73;;;;;;;26.64;52.63;99140.68;262917;1092;115824;-66
2021/08/14 18:36:54;;;;;;;142.43;127.33;;;;;;;26.60;52.91;99138.55;263125;1092;115479;-65
2021/08/14 18:41:58;;;;;;;22.37;19.80;;;;;;;26.54;52.82;99142.89;262910;1093;115769;-70
2021/08/14 18:47:02;;;;;;;21.73;12.83;;;;;;;26.46;53.08;99145.73;262056;1092;115286;-66
2021/08/14 18:52:06;;;;;;;;;;;;;;;26.34;53.16;99139.09;263279;1092;115406;-66
2021/08/14 18:57:09;;;;;;;18.10;13.20;;;;;;;26.19;53.61;99133.70;263208;1093;102786;-67
2021/08/14 19:02:13;;;;;;;18.03;12.75;;;;;;;26.09;53.94;99144.08;263232;1092;115163;-67
2021/08/14 19:07:17;;;;;;;17.33;11.85;;;;;;;26.00;54.78;99137.88;263075;1092;115059;-67
2021/08/14 19:12:21;;;;;;;14.65;10.85;;;;;;;25.93;54.56;99136.96;262749;1093;115244;-69
2021/08/14 19:17:24;;;;;;;22.37;12.50;;;;;;;25.90;55.24;99132.73;262436;1092;115402;-68
2021/08/14 19:22:28;;;;;;;19.30;13.15;;;;;;;25.87;55.10;99144.02;263246;1093;115287;-67
2021/08/14 19:27:32;;;;;;;267.78;230.13;;;;;;;25.81;55.25;99139.31;262182;1092;115870;-66
2021/08/14 19:32:36;;;;;;;82.30;73.25;;;;;;;25.81;55.80;99135.75;262171;1092;115981;-66
2021/08/14 19:37:39;;;;;;;22.53;14.20;;;;;;;25.75;55.97;99136.47;263151;1092;115234;-64
2021/08/14 19:42:43;;;;;;;16.10;12.08;;;;;;;25.64;55.70;99138.66;263183;1092;115905;-65
2021/08/14 19:47:46;;;;;;;17.70;12.50;;;;;;;25.53;56.00;99132.84;263235;1093;116451;-66
2021/08/14 19:52:50;;;;;;;17.13;11.80;;;;;;;25.44;56.62;99132.08;263115;1093;115277;-66
2021/08/14 19:57:55;;;;;;;15.10;10.77;;;;;;;25.37;56.74;99121.09;263172;1092;116068;-64
2021/08/14 20:02:58;;;;;;;17.53;11.93;;;;;;;25.34;56.95;99129.67;263251;1093;115411;-61
2021/08/14 20:08:03;;;;;;;25.65;13.00;;;;;;;25.31;57.33;99138.22;262892;1093;115543;-63
2021/08/14 20:13:07;;;;;;;26.10;13.87;;;;;;;25.20;57.57;99135.94;263192;1093;115385;-67
2021/08/14 20:18:11;;;;;;;27.20;13.53;;;;;;;25.14;57.90;99134.83;262911;1093;115822;-62
2021/08/14 20:23:14;;;;;;;24.87;13.20;;;;;;;25.07;58.48;99124.80;262892;1092;115402;-61
2021/08/14 20:28:18;;;;;;;22.13;12.43;;;;;;;25.01;58.62;99121.81;263295;1093;115304;-67
2021/08/14 20:33:22;;;;;;;26.33;12.68;;;;;;;24.96;58.70;99112.49;263162;1093;115476;-65
2021/08/14 20:38:26;;;;;;;24.90;14.03;;;;;;;24.91;59.41;99109.50;262549;1092;115643;-65
2021/08/14 20:43:29;;;;;;;25.18;14.13;;;;;;;24.88;59.19;99115.31;262781;1092;115270;-65
2021/08/14 20:48:34;;;;;;;25.83;14.67;;;;;;;24.81;59.43;99126.09;263105;1092;116010;-65
2021/08/14 20:53:37;;;;;;;24.35;14.63;;;;;;;24.73;59.75;99115.30;263064;1091;115415;-64
2021/08/14 20:58:41;;;;;;;27.43;13.50;;;;;;;24.64;59.75;99121.83;262626;1092;115805;-63
2021/08/14 21:03:45;;;;;;;;;;;;;;;24.57;60.05;99118.99;263258;1092;115360;-62
2021/08/14 21:08:48;;;;;;;23.80;16.17;;;;;;;24.53;60.14;99110.35;263267;1091;102452;-63
2021/08/14 21:13:53;;;;;;;24.28;16.08;;;;;;;24.50;60.11;99109.88;263198;1093;115647;-63
2021/08/14 21:18:56;;;;;;;22.50;14.75;;;;;;;24.49;60.52;99106.31;263241;1092;115238;-67
2021/08/14 21:24:02;;;;;;;19.43;15.37;;;;;;;24.49;60.73;99113.59;263211;1092;115171;-65
2021/08/14 21:29:06;;;;;;;18.88;14.33;;;;;;;24.48;60.71;99103.75;262985;1093;115589;-64
2021/08/14 21:34:09;;;;;;;22.63;14.95;;;;;;;24.44;60.84;99107.88;263312;1093;115592;-63
2021/08/14 21:39:13;;;;;;;25.18;16.43;;;;;;;24.42;61.17;99107.20;263199;1092;115546;-65
2021/08/14 21:44:17;;;;;;;26.63;17.33;;;;;;;24.38;61.18;99100.41;263252;1092;115417;-64
2021/08/14 21:49:20;;;;;;;25.95;16.43;;;;;;;24.31;61.25;99097.56;262721;1092;115666;-62
2021/08/14 21:54:24;;;;;;;23.35;17.50;;;;;;;24.22;61.24;99095.95;263173;1092;116269;-64
2021/08/14 21:59:28;;;;;;;27.50;17.40;;;;;;;24.14;61.57;99096.84;263048;1092;115399;-66
2021/08/14 22:04:31;;;;;;;24.97;16.07;;;;;;;24.07;61.49;99085.00;261979;1092;118131;-66
2021/08/14 22:09:36;;;;;;;26.17;18.00;;;;;;;24.01;61.82;99097.43;262754;1093;115607;-61
2021/08/14 22:14:40;;;;;;;;;;;;;;;23.96;61.85;99093.58;262718;1093;115262;-63
2021/08/14 22:19:44;;;;;;;26.63;17.13;;;;;;;23.84;62.00;99088.56;262653;1093;102985;-65
2021/08/14 22:24:48;;;;;;;23.55;17.53;;;;;;;23.75;61.96;99096.94;262044;1092;115471;-59
2021/08/14 22:29:52;;;;;;;26.70;15.73;;;;;;;23.65;62.18;99082.69;262996;1092;116978;-60
2021/08/14 22:34:55;;;;;;;22.68;16.50;;;;;;;23.59;62.30;99089.67;263349;1092;115975;-70
2021/08/14 22:39:59;;;;;;;23.00;16.35;;;;;;;23.56;62.56;99077.27;263239;1092;115390;-62
2021/08/14 22:45:03;;;;;;;25.93;15.85;;;;;;;23.51;62.72;99073.42;263498;1093;115871;-63
2021/08/14 22:50:07;;;;;;;26.85;17.20;;;;;;;23.45;62.67;99080.39;263170;1092;115388;-62
2021/08/14 22:55:11;;;;;;;23.38;16.10;;;;;;;23.41;62.70;99080.94;263192;1092;117033;-61
2021/08/14 23:00:19;;;;;;;26.63;16.60;;;;;;;23.36;62.94;99078.73;262717;1092;115332;-62
2021/08/14 23:05:24;;;;;;;23.23;17.07;;;;;;;23.36;62.91;99071.42;261908;1093;115462;-62